Time;durP1;ratioP1;P1;durP2;ratioP2;P2;SDS_P1;SDS_P2;PMS_P1;PMS_P2;Temp;Humidity;BMP_temperature;BMP_pressure;BME280_temperature;BME280_humidity;BME280_pressure;Samples;Min_cycle;Max_cycle;Signal;HPM_P1;HPM_P2
2022/08/17 13:50:27;;;;;;;3.47;1.85;;;;;;;;;;5087407;28;20530;-80
2022/08/17 13:52:57;;;;;;;1.58;1.50;;;;;;;;;;5107635;28;20097;-80
2022/08/17 13:55:27;;;;;;;2.35;1.70;;;;;;;;;;5083202;28;20048;-80
2022/08/17 13:57:55;;;;;;;4.68;1.33;;;;;;;;;;5097106;28;20068;-78
2022/08/17 14:00:35;;;;;;;6.53;1.92;;;;;;;;;;5097965;28;20044;-80
2022/08/17 14:03:03;;;;;;;3.85;1.67;;;;;;;;;;5098381;28;20052;-80
2022/08/17 14:05:31;;;;;;;4.47;1.50;;;;;;;;;;5079407;28;20516;-79
2022/08/17 14:08:00;;;;;;;1.85;1.60;;;;;;;;;;5097154;28;20058;-79
2022/08/17 14:10:35;;;;;;;3.88;1.55;;;;;;;;;;5096866;28;20094;-79
2022/08/17 14:13:02;;;;;;;2.78;1.15;;;;;;;;;;5078892;28;20062;-80
2022/08/17 14:15:29;;;;;;;1.52;1.40;;;;;;;;;;5079097;28;20048;-80
2022/08/17 14:18:17;;;;;;;2.42;1.20;;;;;;;;;;5095245;28;20123;-80
2022/08/17 14:21:07;;;;;;;1.80;1.40;;;;;;;;;;5097257;28;20048;-79
2022/08/17 14:23:34;;;;;;;3.10;1.52;;;;;;;;;;5097166;28;20048;-80
2022/08/17 14:26:01;;;;;;;5.05;1.98;;;;;;;;;;5080445;28;20052;-79
2022/08/17 14:28:28;;;;;;;4.57;1.58;;;;;;;;;;5079212;28;20473;-80
2022/08/17 14:30:57;;;;;;;3.90;1.70;;;;;;;;;;5097765;28;20058;-79
2022/08/17 14:33:25;;;;;;;4.40;1.50;;;;;;;;;;5080786;28;20072;-78
2022/08/17 14:35:52;;;;;;;1.80;1.50;;;;;;;;;;5097369;28;20786;-78
2022/08/17 14:38:19;;;;;;;3.42;1.50;;;;;;;;;;5096762;28;20094;-79
2022/08/17 14:40:47;;;;;;;1.33;1.30;;;;;;;;;;5095791;28;20457;-79
2022/08/17 14:43:15;;;;;;;2.40;1.20;;;;;;;;;;5078385;28;20055;-79
2022/08/17 14:45:42;;;;;;;2.67;1.38;;;;;;;;;;5096326;28;20047;-78
2022/08/17 14:48:10;;;;;;;7.53;1.90;;;;;;;;;;5095313;28;20048;-78
2022/08/17 14:50:42;;;;;;;61.70;6.43;;;;;;;;;;5075506;28;20057;-79
2022/08/17 14:53:10;;;;;;;14.63;2.60;;;;;;;;;;5078132;28;20066;-79
2022/08/17 14:55:39;;;;;;;7.63;1.75;;;;;;;;;;5077230;28;20062;-79
2022/08/17 14:58:07;;;;;;;7.13;1.88;;;;;;;;;;5095148;28;20048;-78
2022/08/17 15:00:35;;;;;;;3.10;1.48;;;;;;;;;;5095516;28;20083;-78
2022/08/17 15:03:03;;;;;;;12.98;2.63;;;;;;;;;;5077311;28;20047;-79
2022/08/17 15:05:32;;;;;;;11.98;2.03;;;;;;;;;;5077526;28;20078;-79
2022/08/17 15:15:25;;;;;;;10.40;1.83;;;;;;;;;;5090657;28;20039;-78
2022/08/17 15:17:52;;;;;;;2.42;1.50;;;;;;;;;;5072001;28;20093;-79
2022/08/17 15:20:22;;;;;;;3.28;1.48;;;;;;;;;;5077246;28;20048;-79
2022/08/17 15:22:53;;;;;;;2.60;1.13;;;;;;;;;;5077692;28;20075;-79
2022/08/17 15:25:22;;;;;;;1.92;1.50;;;;;;;;;;5078168;28;20044;-79
2022/08/17 15:27:49;;;;;;;3.55;1.50;;;;;;;;;;5078484;28;20040;-79
2022/08/17 15:30:16;;;;;;;3.10;1.48;;;;;;;;;;5076173;28;20048;-79
2022/08/17 15:32:44;;;;;;;4.78;1.60;;;;;;;;;;5095317;28;20048;-79
2022/08/17 15:35:20;;;;;;;2.05;1.33;;;;;;;;;;5095008;28;20127;-80
2022/08/17 15:37:54;;;;;;;7.85;1.75;;;;;;;;;;5078837;28;20078;-79
2022/08/17 15:40:21;;;;;;;4.22;1.80;;;;;;;;;;5076324;28;20051;-78
2022/08/17 15:42:49;;;;;;;3.10;1.40;;;;;;;;;;5078283;28;20040;-79
2022/08/17 15:45:21;;;;;;;3.72;1.80;;;;;;;;;;5077747;28;20105;-79
2022/08/17 15:47:48;;;;;;;2.85;1.50;;;;;;;;;;5095419;28;20051;-79
2022/08/17 15:50:15;;;;;;;4.53;1.58;;;;;;;;;;5094552;28;20052;-78
2022/08/17 15:52:43;;;;;;;1.60;1.50;;;;;;;;;;5077227;28;20091;-79
2022/08/17 15:55:12;;;;;;;6.10;1.67;;;;;;;;;;5095804;28;20040;-79
2022/08/17 15:57:39;;;;;;;5.13;1.80;;;;;;;;;;5077751;28;20089;-79
2022/08/17 16:00:08;;;;;;;11.50;1.70;;;;;;;;;;5076875;28;20048;-79
2022/08/17 16:02:35;;;;;;;8.32;2.03;;;;;;;;;;5096386;28;20102;-79
2022/08/17 16:05:23;;;;;;;5.90;1.60;;;;;;;;;;5080565;28;20066;-79
2022/08/17 16:07:52;;;;;;;12.45;2.05;;;;;;;;;;5077147;28;20108;-78
2022/08/17 16:10:20;;;;;;;8.90;1.67;;;;;;;;;;5092821;28;20055;-79
2022/08/17 16:13:00;;;;;;;7.05;2.08;;;;;;;;;;5095081;28;20130;-79
2022/08/17 16:15:29;;;;;;;3.92;2.10;;;;;;;;;;5093481;28;20086;-80
2022/08/17 16:17:57;;;;;;;4.28;1.58;;;;;;;;;;5076709;28;20456;-79
2022/08/17 16:20:24;;;;;;;6.15;2.25;;;;;;;;;;5076359;28;20468;-78
2022/08/17 16:22:52;;;;;;;7.18;1.77;;;;;;;;;;5092419;28;20051;-79
2022/08/17 16:25:22;;;;;;;2.25;1.48;;;;;;;;;;5075908;28;20086;-80
2022/08/17 16:28:09;;;;;;;23.30;2.90;;;;;;;;;;5093732;28;20417;-78
2022/08/17 16:30:37;;;;;;;4.50;1.85;;;;;;;;;;5100878;28;20081;-80
2022/08/17 16:33:04;;;;;;;8.20;2.00;;;;;;;;;;5078063;28;20044;-80
2022/08/17 16:35:33;;;;;;;5.85;1.85;;;;;;;;;;5079035;28;20044;-79
2022/08/17 16:38:00;;;;;;;2.85;1.85;;;;;;;;;;5095468;28;20073;-80
2022/08/17 16:40:28;;;;;;;6.95;2.22;;;;;;;;;;5077072;28;20129;-80
2022/08/17 16:42:57;;;;;;;8.98;2.08;;;;;;;;;;5079845;28;20094;-80
2022/08/17 16:45:26;;;;;;;4.97;1.70;;;;;;;;;;5075850;28;20044;-80
2022/08/17 16:47:54;;;;;;;1.90;1.80;;;;;;;;;;5076732;28;20078;-80
2022/08/17 16:50:22;;;;;;;10.65;1.92;;;;;;;;;;5076787;28;20052;-79
2022/08/17 16:52:50;;;;;;;13.13;2.45;;;;;;;;;;5093932;28;20502;-80
2022/08/17 16:55:20;;;;;;;24.50;3.13;;;;;;;;;;5093080;28;20044;-79
2022/08/17 16:57:47;;;;;;;6.70;2.42;;;;;;;;;;5093817;28;20048;-78
2022/08/17 17:00:18;;;;;;;8.90;2.00;;;;;;;;;;5093244;28;20048;-79
2022/08/17 17:02:47;;;;;;;3.75;2.22;;;;;;;;;;5077790;28;20044;-78
2022/08/17 17:05:24;;;;;;;2.75;1.83;;;;;;;;;;5094499;28;20052;-79
2022/08/17 17:07:57;;;;;;;6.43;2.13;;;;;;;;;;5077334;28;20498;-79
2022/08/17 17:10:32;;;;;;;4.18;2.55;;;;;;;;;;5092696;28;20075;-79
2022/08/17 17:12:59;;;;;;;2.33;2.10;;;;;;;;;;5094790;28;20048;-79
2022/08/17 17:15:41;;;;;;;2.83;2.20;;;;;;;;;;5094310;28;20083;-80
2022/08/17 17:18:10;;;;;;;5.85;2.40;;;;;;;;;;5093623;28;20110;-79
2022/08/17 17:20:55;;;;;;;26.45;5.65;;;;;;;;;;5094616;22;20117;-79
2022/08/17 17:23:42;;;;;;;19.85;3.35;;;;;;;;;;5039498;28;20504;-79
2022/08/17 17:26:28;;;;;;;23.48;3.85;;;;;;;;;;5036641;28;20046;-79
2022/08/17 17:29:13;;;;;;;57.63;7.45;;;;;;;;;;5020681;28;20050;-79
2022/08/17 17:31:46;;;;;;;18.33;3.08;;;;;;;;;;5038077;28;20103;-79
2022/08/17 17:34:15;;;;;;;18.58;3.70;;;;;;;;;;5020958;28;20053;-79
2022/08/17 17:36:49;;;;;;;26.13;4.05;;;;;;;;;;5037693;28;20057;-79
2022/08/17 17:39:22;;;;;;;12.55;3.22;;;;;;;;;;5019284;28;20053;-79
2022/08/17 17:41:55;;;;;;;3.88;2.40;;;;;;;;;;5038142;28;20057;-79
2022/08/17 17:44:28;;;;;;;3.95;2.47;;;;;;;;;;5020063;28;20089;-80
2022/08/17 17:46:57;;;;;;;3.08;1.90;;;;;;;;;;5037676;28;20087;-79
2022/08/17 17:49:37;;;;;;;4.57;2.30;;;;;;;;;;5028090;28;20500;-79
2022/08/17 17:52:24;;;;;;;2.22;1.67;;;;;;;;;;5035178;28;20081;-79
2022/08/17 17:54:58;;;;;;;2.00;1.63;;;;;;;;;;5036828;28;20046;-80
2022/08/17 17:57:25;;;;;;;;;;;;;;;;;;5035790;28;20091;-80
2022/08/17 18:00:12;;;;;;;2.72;2.03;;;;;;;;;;5024127;28;19966;-79
2022/08/17 18:02:50;;;;;;;7.05;2.50;;;;;;;;;;5035052;28;20045;-79
2022/08/17 18:05:34;;;;;;;8.13;2.55;;;;;;;;;;5034770;28;20049;-79
2022/08/17 18:08:14;;;;;;;10.25;2.70;;;;;;;;;;5034889;28;20049;-79
2022/08/17 18:10:49;;;;;;;7.57;2.70;;;;;;;;;;5029300;28;20045;-79
2022/08/17 18:13:33;;;;;;;8.73;2.80;;;;;;;;;;5018066;28;20049;-79
2022/08/17 18:16:01;;;;;;;8.75;2.97;;;;;;;;;;5022537;28;20053;-79
2022/08/17 18:18:36;;;;;;;3.22;2.50;;;;;;;;;;5035659;28;20068;-79
2022/08/17 18:21:15;;;;;;;9.30;2.33;;;;;;;;;;5018092;28;20050;-79
2022/08/17 18:23:52;;;;;;;3.83;2.35;;;;;;;;;;5018125;28;20045;-79
2022/08/17 18:26:35;;;;;;;4.03;2.33;;;;;;;;;;5034870;28;20084;-80
2022/08/17 18:29:33;;;;;;;3.80;2.58;;;;;;;;;;5035208;28;20046;-79
2022/08/17 18:32:18;;;;;;;24.13;3.72;;;;;;;;;;5035580;28;20049;-79
2022/08/17 18:34:47;;;;;;;8.32;2.88;;;;;;;;;;5035132;28;20080;-79
2022/08/17 18:37:33;;;;;;;8.48;2.45;;;;;;;;;;5018139;28;20578;-79
2022/08/17 18:40:19;;;;;;;7.10;2.50;;;;;;;;;;5016718;28;20084;-80
2022/08/17 18:42:46;;;;;;;4.57;2.40;;;;;;;;;;5035499;28;20049;-79
2022/08/17 18:45:29;;;;;;;8.85;2.67;;;;;;;;;;5035279;28;20452;-79
2022/08/17 18:47:57;;;;;;;12.80;2.80;;;;;;;;;;5018448;28;20511;-79
2022/08/17 18:50:26;;;;;;;3.50;2.63;;;;;;;;;;5035800;28;20057;-78
2022/08/17 18:52:54;;;;;;;9.73;3.15;;;;;;;;;;5018394;28;20045;-78
2022/08/17 18:55:23;;;;;;;9.02;2.80;;;;;;;;;;5035959;28;20092;-79
2022/08/17 18:57:51;;;;;;;8.73;2.80;;;;;;;;;;5018509;28;20042;-79
2022/08/17 19:00:39;;;;;;;6.70;2.58;;;;;;;;;;5037710;28;20045;-79
2022/08/17 19:03:16;;;;;;;7.80;2.70;;;;;;;;;;5020986;28;20049;-80
2022/08/17 19:05:51;;;;;;;8.45;2.65;;;;;;;;;;5019580;28;20104;-80
2022/08/17 19:08:26;;;;;;;6.22;2.58;;;;;;;;;;5020423;28;20080;-79
2022/08/17 19:10:56;;;;;;;6.53;2.70;;;;;;;;;;5020423;28;20054;-78
2022/08/17 19:13:42;;;;;;;3.45;2.78;;;;;;;;;;5020568;28;20064;-78
2022/08/17 19:16:21;;;;;;;8.38;3.40;;;;;;;;;;5037211;28;20050;-78
2022/08/17 19:18:48;;;;;;;6.95;3.28;;;;;;;;;;5019606;28;20041;-79
2022/08/17 19:21:29;;;;;;;7.05;2.70;;;;;;;;;;5020611;28;20057;-78
2022/08/17 19:24:04;;;;;;;3.80;2.83;;;;;;;;;;5020987;28;20045;-78
2022/08/17 19:26:33;;;;;;;7.38;3.10;;;;;;;;;;5020025;28;20076;-78
2022/08/17 19:29:39;;;;;;;4.07;2.97;;;;;;;;;;5037121;28;20041;-81
2022/08/17 19:32:08;;;;;;;5.90;2.92;;;;;;;;;;5019090;28;20056;-81
2022/08/17 19:34:36;;;;;;;4.63;3.40;;;;;;;;;;5018925;28;20058;-81
2022/08/17 19:37:07;;;;;;;13.85;3.33;;;;;;;;;;5018356;28;20093;-81
2022/08/17 19:39:48;;;;;;;6.53;2.47;;;;;;;;;;5036572;28;20076;-81
2022/08/17 19:42:38;;;;;;;7.65;3.00;;;;;;;;;;5018595;28;20053;-82
2022/08/17 19:45:32;;;;;;;5.28;3.20;;;;;;;;;;5035685;28;20053;-81
2022/08/17 19:48:13;;;;;;;5.95;3.22;;;;;;;;;;5036981;28;20104;-82
2022/08/17 19:50:43;;;;;;;3.17;2.88;;;;;;;;;;5036023;28;20433;-81
2022/08/17 19:53:22;;;;;;;8.30;3.40;;;;;;;;;;5036722;28;20053;-81
2022/08/17 19:55:52;;;;;;;3.15;2.85;;;;;;;;;;5018651;28;20073;-81
2022/08/17 19:58:32;;;;;;;6.43;3.45;;;;;;;;;;5036030;28;20076;-81
2022/08/17 20:01:00;;;;;;;4.45;3.50;;;;;;;;;;5036012;28;20045;-80
2022/08/17 20:03:38;;;;;;;4.55;3.10;;;;;;;;;;5018209;28;20121;-81
2022/08/17 20:06:06;;;;;;;4.10;2.90;;;;;;;;;;5018374;28;20103;-81
2022/08/17 20:08:48;;;;;;;5.20;3.33;;;;;;;;;;5037380;28;20045;-81
2022/08/17 20:11:19;;;;;;;6.18;2.83;;;;;;;;;;5036547;28;20049;-81
2022/08/17 20:13:49;;;;;;;6.60;3.45;;;;;;;;;;5019120;28;20496;-82
2022/08/17 20:16:16;;;;;;;5.10;2.95;;;;;;;;;;5019734;28;20144;-81
2022/08/17 20:18:49;;;;;;;4.32;3.20;;;;;;;;;;5021893;28;20452;-81
2022/08/17 20:21:36;;;;;;;7.80;3.22;;;;;;;;;;5038698;28;20053;-81
2022/08/17 20:24:15;;;;;;;4.68;2.90;;;;;;;;;;5021692;28;20049;-80
2022/08/17 20:26:49;;;;;;;5.38;3.60;;;;;;;;;;5033909;28;20046;-80
2022/08/17 20:29:32;;;;;;;7.80;3.40;;;;;;;;;;5017630;28;20103;-80
2022/08/17 20:32:16;;;;;;;3.90;3.30;;;;;;;;;;5017125;28;20050;-80
2022/08/17 20:34:45;;;;;;;3.75;3.35;;;;;;;;;;5016135;28;20077;-80
2022/08/17 20:37:12;;;;;;;5.70;3.30;;;;;;;;;;5033730;28;20056;-82
2022/08/17 20:40:07;;;;;;;4.65;3.30;;;;;;;;;;5016341;28;20129;-80
2022/08/17 20:42:35;;;;;;;4.00;3.45;;;;;;;;;;5015835;28;20463;-80
2022/08/17 20:45:24;;;;;;;4.03;3.30;;;;;;;;;;5017074;28;20119;-80
2022/08/17 20:47:54;;;;;;;4.20;3.30;;;;;;;;;;5018939;28;20059;-81
2022/08/17 20:50:44;;;;;;;6.50;3.75;;;;;;;;;;5036141;28;20547;-80
2022/08/17 20:53:31;;;;;;;7.20;3.53;;;;;;;;;;5034227;28;20069;-81
2022/08/17 20:55:59;;;;;;;4.20;3.72;;;;;;;;;;5017900;28;20042;-81
2022/08/17 20:58:26;;;;;;;3.95;3.63;;;;;;;;;;5021853;28;20104;-80
2022/08/17 21:01:00;;;;;;;4.00;3.70;;;;;;;;;;5023724;28;20046;-81
2022/08/17 21:03:27;;;;;;;3.58;3.28;;;;;;;;;;5021629;28;20041;-80
2022/08/17 21:06:15;;;;;;;4.75;3.30;;;;;;;;;;5037685;28;20598;-80
2022/08/17 21:08:52;;;;;;;4.90;3.88;;;;;;;;;;5038186;28;20569;-81
2022/08/17 21:11:30;;;;;;;4.70;4.05;;;;;;;;;;5019975;28;20560;-80
2022/08/17 21:14:27;;;;;;;3.75;3.45;;;;;;;;;;5037408;28;20049;-80
2022/08/17 21:17:13;;;;;;;6.15;3.70;;;;;;;;;;5019777;28;20053;-80
2022/08/17 21:19:59;;;;;;;5.63;3.95;;;;;;;;;;5019507;28;20080;-80
2022/08/17 21:22:59;;;;;;;6.20;3.80;;;;;;;;;;5020372;28;20504;-79
2022/08/17 21:25:32;;;;;;;6.38;4.18;;;;;;;;;;5018792;28;20045;-80
2022/08/17 21:28:20;;;;;;;4.75;4.00;;;;;;;;;;5019065;28;20096;-79
2022/08/17 21:30:50;;;;;;;6.15;4.20;;;;;;;;;;5018319;28;20073;-79
2022/08/17 21:33:19;;;;;;;4.45;3.75;;;;;;;;;;5018215;28;20559;-79
2022/08/17 21:35:59;;;;;;;5.38;4.10;;;;;;;;;;5036124;28;20539;-79
2022/08/17 21:38:34;;;;;;;7.32;4.10;;;;;;;;;;5018230;28;20108;-80
2022/08/17 21:41:02;;;;;;;7.13;4.50;;;;;;;;;;5018038;28;20484;-80
2022/08/17 21:43:31;;;;;;;7.10;4.07;;;;;;;;;;5018260;28;20053;-80
2022/08/17 21:46:03;;;;;;;4.30;3.90;;;;;;;;;;5035645;28;20080;-80
2022/08/17 21:48:40;;;;;;;4.82;4.13;;;;;;;;;;5018092;28;20088;-80
2022/08/17 21:51:19;;;;;;;4.15;3.92;;;;;;;;;;5035202;28;20045;-79
2022/08/17 21:54:12;;;;;;;6.68;4.32;;;;;;;;;;5017948;28;20081;-79
2022/08/17 21:56:40;;;;;;;5.57;4.60;;;;;;;;;;5012896;28;20065;-79
2022/08/17 21:59:15;;;;;;;4.75;4.32;;;;;;;;;;5017649;28;20085;-79
2022/08/17 22:01:42;;;;;;;5.97;4.40;;;;;;;;;;5035142;28;20081;-79
2022/08/17 22:04:23;;;;;;;5.15;4.32;;;;;;;;;;5018990;28;20463;-80
2022/08/17 22:06:52;;;;;;;5.45;3.97;;;;;;;;;;5017457;28;20053;-80
2022/08/17 22:09:31;;;;;;;9.73;4.63;;;;;;;;;;5017328;28;20582;-80
2022/08/17 22:11:58;;;;;;;4.80;4.40;;;;;;;;;;5035116;28;20049;-80
2022/08/17 22:14:28;;;;;;;6.03;4.63;;;;;;;;;;5035338;28;20119;-79
2022/08/17 22:17:18;;;;;;;5.50;4.57;;;;;;;;;;5020744;28;20060;-79
2022/08/17 22:19:56;;;;;;;7.38;4.65;;;;;;;;;;5034849;28;20140;-79
2022/08/17 22:22:28;;;;;;;6.80;4.72;;;;;;;;;;5034801;28;20085;-79
2022/08/17 22:25:06;;;;;;;8.57;4.50;;;;;;;;;;5016905;28;20088;-81
2022/08/17 22:27:44;;;;;;;6.60;5.13;;;;;;;;;;5022018;28;20045;-81
2022/08/17 22:30:17;;;;;;;5.63;5.13;;;;;;;;;;5021765;28;20045;-81
2022/08/17 22:32:46;;;;;;;7.15;5.03;;;;;;;;;;5021295;28;20077;-80
2022/08/17 22:35:28;;;;;;;6.97;5.40;;;;;;;;;;5038733;28;20088;-81
2022/08/17 22:37:56;;;;;;;5.40;5.00;;;;;;;;;;5037917;28;20088;-80
2022/08/17 22:40:33;;;;;;;5.43;4.90;;;;;;;;;;5020440;28;20112;-80
2022/08/17 22:43:02;;;;;;;6.90;4.82;;;;;;;;;;5037798;28;20524;-81
2022/08/17 22:45:29;;;;;;;7.70;4.80;;;;;;;;;;5038730;28;20128;-81
2022/08/17 22:47:57;;;;;;;5.32;4.90;;;;;;;;;;5019799;28;20049;-80
2022/08/17 22:50:27;;;;;;;6.13;5.55;;;;;;;;;;5037089;28;20073;-81
2022/08/17 23:01:38;;;;;;;5.20;4.80;;;;;;;;;;5035648;28;20112;-79
2022/08/17 23:04:09;;;;;;;5.85;5.45;;;;;;;;;;5035790;28;20091;-80
2022/08/17 23:06:37;;;;;;;5.63;5.15;;;;;;;;;;5035442;28;20049;-79
2022/08/17 23:09:05;;;;;;;7.13;5.18;;;;;;;;;;5017598;28;20077;-81
2022/08/17 23:11:40;;;;;;;7.35;5.97;;;;;;;;;;5035457;28;20111;-79
2022/08/17 23:14:17;;;;;;;6.63;5.43;;;;;;;;;;5018155;28;20405;-80
2022/08/17 23:16:45;;;;;;;8.68;5.45;;;;;;;;;;5016789;28;20563;-79
2022/08/17 23:19:14;;;;;;;6.38;5.38;;;;;;;;;;5016214;28;20053;-79
2022/08/17 23:21:43;;;;;;;5.55;5.15;;;;;;;;;;5055310;22;20504;-81
2022/08/17 23:24:13;;;;;;;5.43;4.93;;;;;;;;;;5049134;28;20060;-81
2022/08/17 23:26:40;;;;;;;6.07;5.57;;;;;;;;;;5049228;28;20095;-82
2022/08/17 23:29:08;;;;;;;5.53;5.07;;;;;;;;;;5049300;28;20092;-82
2022/08/17 23:31:37;;;;;;;5.85;5.32;;;;;;;;;;5033782;28;20081;-82
2022/08/17 23:34:05;;;;;;;9.23;5.68;;;;;;;;;;5016101;28;20045;-81
2022/08/17 23:36:35;;;;;;;5.72;5.32;;;;;;;;;;5037906;28;20045;-83
2022/08/17 23:39:02;;;;;;;5.60;5.20;;;;;;;;;;5038228;28;20050;-83
2022/08/17 23:41:32;;;;;;;5.50;5.10;;;;;;;;;;5019940;28;20423;-83
2022/08/17 23:43:59;;;;;;;6.45;5.57;;;;;;;;;;5018672;28;20088;-83
2022/08/17 23:46:27;;;;;;;6.43;5.28;;;;;;;;;;5019330;28;20548;-83
2022/08/17 23:48:54;;;;;;;6.10;5.60;;;;;;;;;;5018994;28;20286;-81
2022/08/17 23:51:24;;;;;;;5.93;5.32;;;;;;;;;;5034913;28;20041;-82
2022/08/17 23:53:56;;;;;;;6.80;5.72;;;;;;;;;;5033679;28;20085;-82
2022/08/17 23:56:24;;;;;;;6.55;5.95;;;;;;;;;;5016062;28;20046;-82
2022/08/17 23:58:53;;;;;;;5.82;5.35;;;;;;;;;;5016124;28;20060;-81
